Time;durP1;ratioP1;P1;durP2;ratioP2;P2;SDS_P1;SDS_P2;PMS_P1;PMS_P2;Temp;Humidity;BMP_temperature;BMP_pressure;BME280_temperature;BME280_humidity;BME280_pressure;Samples;Min_cycle;Max_cycle;Signal;HPM_P1;HPM_P2
2022/01/23 00:01:50;;;;;;;;;;;;;;;13.60;54.44;103638.66;5091045;28;19916;-82
2022/01/23 00:04:16;;;;;;;;;;;;;;;13.52;54.89;103635.13;5094946;28;20416;-82
2022/01/23 00:06:44;;;;;;;;;;;;;;;13.53;54.75;103636.03;5095501;28;19922;-81
2022/01/23 00:09:09;;;;;;;;;;;;;;;13.29;55.79;103639.03;5095231;28;20289;-81
2022/01/23 00:11:40;;;;;;;;;;;;;;;13.81;53.95;103642.84;5096422;28;19917;-82
2022/01/23 00:19:33;;;;;;;;;;;;;;;13.84;53.94;103633.72;5098014;28;19927;-82
2022/01/23 00:21:59;;;;;;;;;;;;;;;13.75;53.63;103623.91;5098210;28;19924;-82
2022/01/23 00:32:35;;;;;;;;;;;;;;;13.97;53.70;103623.53;5100530;28;19923;-82
2022/01/23 00:35:01;;;;;;;;;;;;;;;14.27;52.50;103623.91;5100001;28;19916;-82
2022/01/23 00:37:26;;;;;;;;;;;;;;;14.12;52.98;103620.53;5100282;28;19916;-82
2022/01/23 00:39:51;;;;;;;;;;;;;;;14.14;53.24;103624.09;5100243;28;19912;-81
2022/01/23 00:42:16;;;;;;;;;;;;;;;14.18;52.83;103631.31;5098877;28;19916;-82
2022/01/23 00:44:43;;;;;;;;;;;;;;;14.03;53.02;103628.84;5098504;28;19958;-81
2022/01/23 00:47:12;;;;;;;;;;;;;;;13.86;53.54;103623.72;5098799;28;20430;-81
2022/01/23 00:49:37;;;;;;;;;;;;;;;13.80;53.23;103622.00;5098647;28;19931;-82
2022/01/23 00:52:02;;;;;;;;;;;;;;;13.93;53.67;103619.06;5099536;28;19959;-82
2022/01/23 00:54:27;;;;;;;;;;;;;;;14.13;53.07;103608.72;5098209;28;19964;-81
2022/01/23 00:56:54;;;;;;;;;;;;;;;13.69;53.59;103610.38;5097726;28;19916;-82
2022/01/23 00:59:19;;;;;;;;;;;;;;;13.85;53.95;103610.13;5098705;28;19923;-81
2022/01/23 01:01:44;;;;;;;;;;;;;;;14.20;52.56;103605.88;5098466;28;19916;-81
2022/01/23 01:04:09;;;;;;;;;;;;;;;14.35;52.49;103616.47;5098351;28;20399;-81
2022/01/23 01:06:35;;;;;;;;;;;;;;;13.91;53.55;103612.75;5099557;28;19938;-82
2022/01/23 01:09:04;;;;;;;;;;;;;;;14.00;53.15;103607.13;5099844;28;19928;-82
2022/01/23 01:17:03;;;;;;;;;;;;;;;13.91;53.33;103610.91;5098579;28;19916;-81
2022/01/23 01:35:36;;;;;;;;;;;;;;;14.14;52.50;103626.81;5097748;28;19962;-82
2022/01/23 01:38:02;;;;;;;;;;;;;;;14.36;51.87;103624.63;5096597;28;19916;-82
2022/01/23 01:40:27;;;;;;;;;;;;;;;14.43;51.85;103630.88;5096393;28;19923;-81
2022/01/23 01:42:53;;;;;;;;;;;;;;;14.16;52.03;103627.72;5096106;28;19920;-81
2022/01/23 01:45:26;;;;;;;;;;;;;;;14.11;52.24;103626.00;5097698;28;19923;-81
2022/01/23 01:47:52;;;;;;;;;;;;;;;14.05;52.64;103624.28;5100495;28;19916;-82
2022/01/23 01:50:18;;;;;;;;;;;;;;;14.10;52.83;103636.00;5100432;28;19968;-81
2022/01/23 01:52:43;;;;;;;;;;;;;;;14.26;52.22;103635.72;5101855;28;19920;-81
2022/01/23 01:55:12;;;;;;;;;;;;;;;14.18;52.22;103636.75;5101716;28;20337;-82
2022/01/23 01:57:43;;;;;;;;;;;;;;;13.85;53.41;103637.34;5102150;28;19922;-82
2022/01/23 02:00:37;;;;;;;;;;;;;;;13.62;54.58;103635.91;5100288;28;19916;-81
2022/01/23 02:08:28;;;;;;;;;;;;;;;14.00;52.73;103639.81;5102515;28;19976;-82
2022/01/23 02:10:55;;;;;;;;;;;;;;;13.65;53.80;103635.84;5100447;28;19923;-82
2022/01/23 02:13:27;;;;;;;;;;;;;;;13.95;52.82;103630.81;5101478;28;19999;-82
2022/01/23 02:18:30;;;;;;;;;;;;;;;14.38;51.97;103637.31;5101439;28;20399;-80
2022/01/23 02:50:57;;;;;;;;;;;;;;;14.56;51.35;103596.09;5100885;28;19942;-82
2022/01/23 02:56:18;;;;;;;;;;;;;;;14.66;51.40;103605.91;5098743;28;19923;-83
2022/01/23 02:58:56;;;;;;;;;;;;;;;14.11;52.38;103598.78;5094784;28;19920;-82
2022/01/23 03:01:24;;;;;;;;;;;;;;;14.11;52.85;103596.94;5096158;28;19969;-82
2022/01/23 03:03:56;;;;;;;;;;;;;;;14.06;52.48;103598.88;5096118;28;20438;-81
2022/01/23 03:06:56;;;;;;;;;;;;;;;14.34;52.12;103588.34;5096049;28;19916;-81
2022/01/23 03:09:53;;;;;;;;;;;;;;;14.31;52.26;103585.69;5094703;28;19922;-81
2022/01/23 03:12:26;;;;;;;;;;;;;;;14.26;52.33;103582.16;5095723;28;19962;-81
2022/01/23 03:15:15;;;;;;;;;;;;;;;14.49;51.44;103587.16;5094638;28;19923;-82
2022/01/23 03:26:16;;;;;;;;;;;;;;;14.46;52.03;103599.91;5096021;28;19966;-82
2022/01/23 03:29:04;;;;;;;;;;;;;;;14.52;51.72;103602.53;5095504;28;19923;-82
2022/01/23 03:31:33;;;;;;;;;;;;;;;14.30;52.29;103604.78;5096509;28;19916;-82
2022/01/23 03:33:59;;;;;;;;;;;;;;;14.34;52.10;103599.25;5095509;28;20394;-81
2022/01/23 03:36:25;;;;;;;;;;;;;;;14.74;51.10;103596.69;5095514;28;19916;-81
2022/01/23 03:38:51;;;;;;;;;;;;;;;14.80;50.87;103605.63;5096828;28;19944;-82
2022/01/23 03:41:16;;;;;;;;;;;;;;;14.82;50.79;103611.03;5095296;28;19920;-81
2022/01/23 03:43:41;;;;;;;;;;;;;;;14.72;50.96;103599.44;5096546;28;19923;-81
2022/01/23 03:51:19;;;;;;;;;;;;;;;14.92;50.60;103606.28;5096400;28;20011;-81
2022/01/23 03:53:45;;;;;;;;;;;;;;;14.45;51.54;103607.19;5094903;28;19952;-82
2022/01/23 03:56:10;;;;;;;;;;;;;;;14.63;51.35;103611.44;5094995;28;20397;-82
2022/01/23 03:58:35;;;;;;;;;;;;;;;14.45;51.53;103617.22;5094908;28;19916;-81
2022/01/23 04:01:01;;;;;;;;;;;;;;;14.80;51.01;103613.78;5094904;28;19923;-81
2022/01/23 04:03:26;;;;;;;;;;;;;;;14.96;50.55;103616.19;5094604;28;19923;-81
2022/01/23 04:05:51;;;;;;;;;;;;;;;14.62;50.72;103615.06;5096066;28;19916;-82
2022/01/23 04:08:17;;;;;;;;;;;;;;;14.53;51.61;103609.78;5093901;28;20271;-82
2022/01/23 04:10:42;;;;;;;;;;;;;;;14.78;50.91;103615.66;5094812;28;19963;-81
2022/01/23 04:13:22;;;;;;;;;;;;;;;14.86;50.74;103613.66;5094783;28;19923;-81
2022/01/23 04:15:55;;;;;;;;;;;;;;;14.78;50.84;103615.66;5094753;28;19922;-82
2022/01/23 04:19:09;;;;;;;;;;;;;;;14.62;51.44;103615.06;5094615;28;20002;-82
2022/01/23 04:35:07;;;;;;;;;;;;;;;16.05;47.21;103623.63;5100447;28;19917;-82
2022/01/23 04:45:51;;;;;;;;;;;;;;;16.15;46.84;103621.53;5100616;28;20297;-81
2022/01/23 05:04:34;;;;;;;;;;;;;;;15.98;47.25;103627.47;5102371;28;19942;-82
2022/01/23 05:09:26;;;;;;;;;;;;;;;15.89;47.39;103625.84;5103043;28;19916;-82
2022/01/23 05:11:54;;;;;;;;;;;;;;;15.95;47.46;103629.31;5101976;28;19960;-82
2022/01/23 05:14:26;;;;;;;;;;;;;;;16.03;47.33;103617.31;5101733;28;19916;-81
2022/01/23 05:16:52;;;;;;;;;;;;;;;16.13;46.93;103621.59;5101858;28;20293;-81
2022/01/23 05:19:17;;;;;;;;;;;;;;;16.10;47.06;103619.81;5102664;28;19912;-81
2022/01/23 05:24:10;;;;;;;;;;;;;;;16.10;47.12;103618.94;5102875;28;19916;-82
2022/01/23 05:26:42;;;;;;;;;;;;;;;16.09;46.92;103618.06;5102862;28;19938;-81
2022/01/23 05:29:08;;;;;;;;;;;;;;;16.01;47.30;103627.38;5102566;28;20010;-81
2022/01/23 05:31:33;;;;;;;;;;;;;;;16.11;46.89;103621.63;5101124;28;19947;-82
2022/01/23 05:33:58;;;;;;;;;;;;;;;16.05;47.22;103618.19;5099949;28;19955;-81
2022/01/23 05:36:24;;;;;;;;;;;;;;;16.09;46.94;103626.25;5099977;28;19917;-82
2022/01/23 05:38:49;;;;;;;;;;;;;;;15.67;48.00;103622.72;5101185;28;19956;-81
2022/01/23 05:41:14;;;;;;;;;;;;;;;15.67;48.13;103617.25;5099497;28;19939;-82
2022/01/23 05:43:39;;;;;;;;;;;;;;;15.80;47.88;103618.78;5099559;28;20116;-82
2022/01/23 05:46:05;;;;;;;;;;;;;;;15.28;49.08;103614.56;5099723;28;19979;-82
2022/01/23 05:48:30;;;;;;;;;;;;;;;15.27;49.01;103623.69;5100460;28;19920;-82
2022/01/23 05:50:55;;;;;;;;;;;;;;;15.75;47.98;103621.59;5100628;28;19920;-81
2022/01/23 05:53:20;;;;;;;;;;;;;;;15.90;47.40;103619.47;5099631;28;19929;-81
2022/01/23 05:55:45;;;;;;;;;;;;;;;15.87;47.28;103620.44;5099975;28;19923;-82
2022/01/23 05:58:11;;;;;;;;;;;;;;;15.73;47.72;103617.09;5099448;28;19923;-81
2022/01/23 06:00:36;;;;;;;;;;;;;;;15.50;48.40;103618.56;5100842;28;19916;-82
2022/01/23 06:03:01;;;;;;;;;;;;;;;15.22;48.98;103613.78;5099746;28;19922;-82
2022/01/23 06:05:27;;;;;;;;;;;;;;;14.98;50.01;103615.22;5099418;28;19923;-82
2022/01/23 06:07:52;;;;;;;;;;;;;;;14.82;50.41;103617.38;5099290;28;19917;-82
2022/01/23 06:10:23;;;;;;;;;;;;;;;14.97;50.01;103618.88;5099256;28;19916;-82
2022/01/23 06:12:49;;;;;;;;;;;;;;;15.29;49.39;103611.78;5099466;28;19916;-82
2022/01/23 06:15:15;;;;;;;;;;;;;;;14.71;50.47;103622.16;5099227;28;19916;-81
2022/01/23 06:17:41;;;;;;;;;;;;;;;15.02;49.69;103616.03;5099276;28;20384;-82
2022/01/23 06:20:08;;;;;;;;;;;;;;;15.33;49.17;103609.91;5099655;28;20030;-83
2022/01/23 06:22:38;;;;;;;;;;;;;;;15.51;48.49;103611.31;5096207;28;19932;-81
2022/01/23 06:25:05;;;;;;;;;;;;;;;15.17;49.22;103610.28;5097409;28;20069;-82
2022/01/23 06:27:31;;;;;;;;;;;;;;;15.58;48.20;103611.13;5096518;28;19966;-82
2022/01/23 06:29:56;;;;;;;;;;;;;;;15.31;49.02;103614.47;5097316;28;19939;-82
2022/01/23 06:32:22;;;;;;;;;;;;;;;14.50;51.00;103626.19;5100798;28;19916;-81
2022/01/23 06:34:47;;;;;;;;;;;;;;;14.39;51.26;103623.66;5101882;28;20362;-82
2022/01/23 06:37:12;;;;;;;;;;;;;;;14.43;51.70;103621.78;5102064;28;20010;-82
2022/01/23 06:39:38;;;;;;;;;;;;;;;14.25;52.24;103631.19;5097955;28;19916;-81
2022/01/23 06:42:03;;;;;;;;;;;;;;;14.31;51.83;103621.09;5094967;28;19916;-82
2022/01/23 06:44:28;;;;;;;;;;;;;;;14.25;52.36;103629.38;5094868;28;19916;-82
2022/01/23 06:46:55;;;;;;;;;;;;;;;14.51;51.26;103628.00;5094405;28;19916;-82
2022/01/23 06:49:20;;;;;;;;;;;;;;;14.07;53.25;103638.78;5095952;28;19916;-82
2022/01/23 06:51:47;;;;;;;;;;;;;;;14.12;52.17;103645.03;5095809;28;19930;-82
2022/01/23 06:54:12;;;;;;;;;;;;;;;14.57;51.73;103643.28;5094589;28;19915;-81
2022/01/23 06:56:37;;;;;;;;;;;;;;;14.00;52.84;103640.69;5094617;28;19917;-85
2022/01/23 06:59:03;;;;;;;;;;;;;;;14.59;51.56;103649.63;5083416;28;19924;-80
2022/01/23 07:01:28;;;;;;;;;;;;;;;15.14;49.80;103651.25;5093817;28;19923;-80
2022/01/23 07:03:53;;;;;;;;;;;;;;;15.48;48.63;103645.00;5095197;28;19920;-80
2022/01/23 07:06:18;;;;;;;;;;;;;;;15.62;48.14;103644.66;5095429;28;19998;-82
2022/01/23 07:08:44;;;;;;;;;;;;;;;15.64;48.21;103650.09;5095432;28;19916;-82
2022/01/23 07:11:09;;;;;;;;;;;;;;;15.75;48.03;103658.94;5094692;28;19942;-81
2022/01/23 07:13:34;;;;;;;;;;;;;;;15.76;47.80;103656.16;5094020;28;20007;-82
2022/01/23 07:16:02;;;;;;;;;;;;;;;15.50;48.67;103656.78;5094001;28;20014;-81
2022/01/23 07:18:27;;;;;;;;;;;;;;;15.73;47.86;103655.31;5095154;28;19916;-81
2022/01/23 07:20:52;;;;;;;;;;;;;;;15.42;48.57;103658.78;5094846;28;19916;-81
2022/01/23 07:23:21;;;;;;;;;;;;;;;14.80;50.14;103661.97;5093449;28;19978;-82
2022/01/23 07:25:47;;;;;;;;;;;;;;;14.69;50.67;103659.47;5093747;28;19966;-81
2022/01/23 07:28:15;;;;;;;;;;;;;;;15.12;49.63;103664.00;5094707;28;19959;-81
2022/01/23 07:33:14;;;;;;;;;;;;;;;15.39;48.52;103669.78;5095260;28;19970;-82
2022/01/23 07:35:40;;;;;;;;;;;;;;;15.59;48.23;103669.31;5094604;28;19920;-82
2022/01/23 07:38:05;;;;;;;;;;;;;;;15.65;48.06;103671.00;5093445;28;19916;-81
2022/01/23 07:40:30;;;;;;;;;;;;;;;15.81;47.50;103674.31;5094688;28;20269;-82
2022/01/23 07:42:55;;;;;;;;;;;;;;;15.81;47.51;103682.50;5092367;28;19923;-82
2022/01/23 07:45:20;;;;;;;;;;;;;;;15.48;48.34;103688.66;5094080;28;19978;-82
2022/01/23 07:47:46;;;;;;;;;;;;;;;15.73;47.76;103688.06;5093050;28;19916;-82
2022/01/23 07:50:11;;;;;;;;;;;;;;;15.84;47.71;103691.50;5093000;28;19916;-82
2022/01/23 07:52:37;;;;;;;;;;;;;;;15.85;47.47;103696.03;5093096;28;20019;-80
2022/01/23 07:55:07;;;;;;;;;;;;;;;15.93;47.32;103696.72;5092943;28;19923;-82
2022/01/23 07:57:33;;;;;;;;;;;;;;;15.75;47.77;103691.69;5094098;28;19923;-80
2022/01/23 07:59:59;;;;;;;;;;;;;;;15.40;48.47;103698.88;5092965;28;19916;-82
2022/01/23 08:02:24;;;;;;;;;;;;;;;14.77;50.34;103695.63;5092911;28;19916;-80
2022/01/23 08:04:49;;;;;;;;;;;;;;;14.39;51.33;103704.47;5093112;28;20003;-81
2022/01/23 08:07:47;;;;;;;;;;;;;;;14.47;51.69;103713.41;5094420;28;19943;-81
2022/01/23 08:10:07;;;;;;;;;;;;;;;14.59;51.39;103702.28;5092885;28;20284;-82
2022/01/23 08:12:32;;;;;;;;;;;;;;;14.62;50.74;103707.69;5092193;28;19932;-82
2022/01/23 08:14:58;;;;;;;;;;;;;;;15.00;50.06;103700.59;5093484;28;19924;-83
2022/01/23 08:17:24;;;;;;;;;;;;;;;14.81;50.46;103699.16;5092274;28;20380;-83
2022/01/23 08:19:57;;;;;;;;;;;;;;;14.65;50.81;103702.19;5094039;28;19920;-84
2022/01/23 08:22:23;;;;;;;;;;;;;;;14.24;52.11;103708.38;5092553;28;19928;-82
2022/01/23 08:24:49;;;;;;;;;;;;;;;14.27;52.22;103717.38;5092207;28;20053;-82
2022/01/23 08:27:15;;;;;;;;;;;;;;;14.52;51.63;103715.13;5092255;28;19959;-82
2022/01/23 08:29:40;;;;;;;;;;;;;;;14.67;50.67;103710.34;5093684;28;19928;-82
2022/01/23 08:32:06;;;;;;;;;;;;;;;14.43;51.59;103720.75;5092245;28;19916;-82
2022/01/23 08:34:32;;;;;;;;;;;;;;;14.76;51.27;103709.28;5092091;28;19985;-81
2022/01/23 08:36:57;;;;;;;;;;;;;;;15.18;50.01;103709.34;5093634;28;20377;-82
2022/01/23 08:39:25;;;;;;;;;;;;;;;14.86;50.66;103716.34;5093371;28;19916;-82
2022/01/23 08:41:50;;;;;;;;;;;;;;;14.71;50.58;103712.09;5092148;28;19916;-82
2022/01/23 08:44:16;;;;;;;;;;;;;;;14.91;50.33;103713.53;5093399;28;19924;-82
2022/01/23 08:46:42;;;;;;;;;;;;;;;15.14;49.92;103711.22;5092008;28;19912;-82
2022/01/23 08:49:07;;;;;;;;;;;;;;;15.02;49.84;103716.91;5093138;28;19916;-84
2022/01/23 08:51:32;;;;;;;;;;;;;;;14.91;50.71;103719.88;5091740;28;19920;-84
2022/01/23 08:53:59;;;;;;;;;;;;;;;15.44;49.36;103714.22;5093302;28;19920;-83
2022/01/23 08:56:24;;;;;;;;;;;;;;;15.19;49.55;103720.22;5091786;28;19978;-85
2022/01/23 08:58:50;;;;;;;;;;;;;;;15.10;49.75;103712.22;5091895;28;19928;-83
2022/01/23 09:01:15;;;;;;;;;;;;;;;15.02;49.68;103722.38;5093403;28;19916;-85
2022/01/23 09:03:40;;;;;;;;;;;;;;;15.20;49.20;103708.38;5092979;28;19920;-82
2022/01/23 09:06:07;;;;;;;;;;;;;;;15.79;48.04;103701.59;5093388;28;20488;-82
2022/01/23 09:08:35;;;;;;;;;;;;;;;16.16;47.50;103708.91;5091938;28;19920;-83
2022/01/23 09:11:07;;;;;;;;;;;;;;;16.04;47.33;103717.41;5093039;28;19916;-82
2022/01/23 09:16:05;;;;;;;;;;;;;;;16.38;46.92;103716.53;5093185;28;19922;-82
2022/01/23 09:18:30;;;;;;;;;;;;;;;15.44;48.46;103726.97;5093063;28;20029;-82
2022/01/23 09:20:55;;;;;;;;;;;;;;;15.76;47.97;103720.75;5091504;28;20373;-82
2022/01/23 09:23:21;;;;;;;;;;;;;;;14.78;50.42;103727.41;5091485;28;20334;-82
2022/01/23 09:25:46;;;;;;;;;;;;;;;15.13;49.81;103725.78;5092794;28;19916;-83
2022/01/23 09:28:14;;;;;;;;;;;;;;;15.26;49.68;103720.06;5091769;28;20396;-82
2022/01/23 09:30:42;;;;;;;;;;;;;;;15.77;48.25;103725.28;5092622;28;19916;-83
2022/01/23 09:33:08;;;;;;;;;;;;;;;15.23;49.26;103731.94;5091567;28;19916;-82
2022/01/23 09:35:33;;;;;;;;;;;;;;;14.76;50.61;103731.06;5091008;28;19916;-81
2022/01/23 09:37:58;;;;;;;;;;;;;;;14.64;51.11;103733.09;5090435;28;19920;-82
2022/01/23 09:40:24;;;;;;;;;;;;;;;14.76;51.00;103731.97;5090426;28;20409;-82
2022/01/23 09:42:50;;;;;;;;;;;;;;;15.08;50.35;103738.59;5091861;28;19916;-83
2022/01/23 09:45:16;;;;;;;;;;;;;;;14.89;50.73;103738.09;5091578;28;20400;-84
2022/01/23 09:47:42;;;;;;;;;;;;;;;14.92;49.61;103746.19;5090387;28;19917;-84
2022/01/23 09:50:08;;;;;;;;;;;;;;;15.19;49.82;103743.88;5090152;28;19960;-83
2022/01/23 09:52:35;;;;;;;;;;;;;;;15.89;48.16;103737.78;5092406;28;20002;-82
2022/01/23 09:55:07;;;;;;;;;;;;;;;15.48;48.49;103745.94;5092559;28;19915;-83
2022/01/23 09:57:34;;;;;;;;;;;;;;;15.41;48.77;103734.28;5092652;28;20030;-84
2022/01/23 10:00:04;;;;;;;;;;;;;;;15.58;48.51;103735.75;5091277;28;19916;-83
2022/01/23 10:02:29;;;;;;;;;;;;;;;15.36;49.55;103748.94;5091264;28;19917;-82
2022/01/23 10:04:54;;;;;;;;;;;;;;;15.25;49.83;103741.00;5091343;28;19912;-83
2022/01/23 10:07:21;;;;;;;;;;;;;;;15.49;49.02;103739.56;5094388;28;20002;-82
2022/01/23 10:09:52;;;;;;;;;;;;;;;14.84;50.36;103743.63;5094958;28;19965;-83
2022/01/23 10:12:17;;;;;;;;;;;;;;;15.27;49.53;103746.44;5095232;28;20358;-83
2022/01/23 10:14:43;;;;;;;;;;;;;;;15.01;50.08;103747.84;5095197;28;20057;-82
2022/01/23 10:17:09;;;;;;;;;;;;;;;15.59;48.48;103745.72;5096177;28;19955;-82
2022/01/23 10:19:34;;;;;;;;;;;;;;;15.30;49.42;103743.63;5094959;28;19951;-82
2022/01/23 10:22:00;;;;;;;;;;;;;;;15.48;48.82;103737.78;5103872;28;20326;-82
2022/01/23 10:24:27;;;;;;;;;;;;;;;15.01;50.69;103742.41;5101691;28;19927;-82
2022/01/23 10:26:56;;;;;;;;;;;;;;;15.04;49.96;103743.22;5116561;28;19923;-83
2022/01/23 10:29:32;;;;;;;;;;;;;;;14.99;49.72;103738.78;5103723;28;19924;-81
2022/01/23 10:32:03;;;;;;;;;;;;;;;14.71;50.58;103740.22;5092869;28;19944;-82
2022/01/23 10:34:47;;;;;;;;;;;;;;;14.71;51.36;103744.78;5092162;28;20027;-82
2022/01/23 10:37:23;;;;;;;;;;;;;;;15.84;48.65;103737.91;5094071;28;19931;-82
2022/01/23 10:39:50;;;;;;;;;;;;;;;15.97;48.47;103735.75;5092823;28;20023;-82
2022/01/23 10:42:26;;;;;;;;;;;;;;;15.79;48.89;103741.66;5092139;28;19916;-83
2022/01/23 10:47:47;;;;;;;;;;;;;;;15.95;48.01;103740.38;5093536;28;20305;-82
2022/01/23 10:50:13;;;;;;;;;;;;;;;15.59;49.08;103735.72;5091447;28;20019;-81
2022/01/23 10:52:48;;;;;;;;;;;;;;;15.28;49.66;103731.84;5092463;28;20024;-81
2022/01/23 10:55:13;;;;;;;;;;;;;;;14.55;51.75;103725.03;5093469;28;19924;-82
2022/01/23 10:57:40;;;;;;;;;;;;;;;15.52;48.71;103728.59;5091752;28;19985;-84
2022/01/23 11:00:07;;;;;;;;;;;;;;;15.20;49.52;103729.28;5091199;28;19973;-83
2022/01/23 11:02:37;;;;;;;;;;;;;;;15.74;48.72;103725.38;5091452;28;19924;-82
2022/01/23 11:05:06;;;;;;;;;;;;;;;15.82;48.34;103726.13;5091508;28;19916;-82
2022/01/23 11:07:38;;;;;;;;;;;;;;;15.30;49.05;103721.81;5091699;28;20607;-82
2022/01/23 11:10:08;;;;;;;;;;;;;;;15.26;49.22;103730.97;5089682;28;19919;-81
2022/01/23 11:18:00;;;;;;;;;;;;;;;14.98;50.48;103715.22;5090440;28;20109;-83
2022/01/23 11:20:32;;;;;;;;;;;;;;;14.78;50.60;103721.94;5091347;28;20018;-83
2022/01/23 11:23:01;;;;;;;;;;;;;;;16.01;47.72;103710.19;5091423;28;19920;-82
2022/01/23 11:25:26;;;;;;;;;;;;;;;15.37;48.99;103710.72;5092324;28;19974;-82
2022/01/23 11:28:00;;;;;;;;;;;;;;;15.21;49.21;103707.41;5092713;28;19916;-83
2022/01/23 11:30:33;;;;;;;;;;;;;;;15.06;49.54;103713.22;5089525;28;19920;-81
2022/01/23 11:32:59;;;;;;;;;;;;;;;15.55;48.86;103705.78;5090480;28;19920;-83
2022/01/23 11:35:27;;;;;;;;;;;;;;;15.68;48.14;103706.41;5090674;28;20049;-83
2022/01/23 11:37:53;;;;;;;;;;;;;;;15.27;48.77;103700.94;5090902;28;19916;-81
2022/01/23 11:40:39;;;;;;;;;;;;;;;15.19;49.21;103698.38;5091314;28;19927;-81
2022/01/23 11:53:52;;;;;;;;;;;;;;;15.31;48.51;103690.84;5090905;28;19974;-81
2022/01/23 11:56:38;;;;;;;;;;;;;;;14.88;49.20;103695.41;5091268;28;19947;-83
2022/01/23 11:59:18;;;;;;;;;;;;;;;14.91;49.93;103686.25;5090320;28;19916;-81
2022/01/23 12:01:45;;;;;;;;;;;;;;;15.10;49.16;103686.75;5089977;28;19923;-81
2022/01/23 12:04:18;;;;;;;;;;;;;;;15.58;48.24;103682.06;5094472;28;19923;-82
2022/01/23 12:06:45;;;;;;;;;;;;;;;16.05;47.20;103678.25;5089557;28;19965;-82
2022/01/23 12:09:16;;;;;;;;;;;;;;;15.55;46.84;103682.13;5091694;28;20388;-81
2022/01/23 12:12:01;;;;;;;;;;;;;;;15.36;47.78;103672.56;5091143;28;19920;-82
2022/01/23 12:17:05;;;;;;;;;;;;;;;16.09;45.87;103671.75;5091970;28;20297;-83
2022/01/23 12:19:44;;;;;;;;;;;;;;;16.36;45.08;103677.44;5088953;28;20309;-83
2022/01/23 12:22:32;;;;;;;;;;;;;;;15.89;46.12;103681.34;5089765;28;19935;-83
2022/01/23 12:25:04;;;;;;;;;;;;;;;15.73;46.64;103669.88;5091402;28;19931;-83
2022/01/23 12:27:31;;;;;;;;;;;;;;;15.35;47.92;103676.22;5089662;28;20001;-82
2022/01/23 12:30:09;;;;;;;;;;;;;;;16.00;46.23;103670.16;5089061;28;19920;-82
2022/01/23 12:32:35;;;;;;;;;;;;;;;15.26;47.58;103670.97;5090057;28;19916;-84
2022/01/23 12:35:02;;;;;;;;;;;;;;;16.08;46.50;103667.25;5090194;28;20615;-83
2022/01/23 12:37:47;;;;;;;;;;;;;;;15.67;46.54;103666.38;5089862;28;19981;-82
2022/01/23 12:40:32;;;;;;;;;;;;;;;15.79;46.30;103670.69;5089760;28;19931;-83
2022/01/23 12:43:08;;;;;;;;;;;;;;;15.03;46.95;103659.63;5088061;28;19934;-84
2022/01/23 12:45:44;;;;;;;;;;;;;;;15.78;46.02;103658.88;5091032;28;19994;-86
2022/01/23 12:48:25;;;;;;;;;;;;;;;15.68;45.70;103660.91;5089575;28;19970;-83
2022/01/23 12:50:51;;;;;;;;;;;;;;;16.13;45.08;103654.34;5089460;28;19930;-84
2022/01/23 12:53:16;;;;;;;;;;;;;;;16.38;44.46;103653.69;5092288;28;19931;-85
2022/01/23 12:56:00;;;;;;;;;;;;;;;15.90;45.05;103650.38;5092685;28;19916;-81
2022/01/23 12:58:25;;;;;;;;;;;;;;;15.30;46.89;103648.16;5091222;28;19916;-81
2022/01/23 13:00:51;;;;;;;;;;;;;;;16.14;44.93;103656.16;5091842;28;19969;-82
2022/01/23 13:03:22;;;;;;;;;;;;;;;15.50;45.29;103648.59;5092029;28;19916;-84
2022/01/23 13:05:48;;;;;;;;;;;;;;;15.37;45.61;103656.19;5092883;28;19920;-86
2022/01/23 13:08:29;;;;;;;;;;;;;;;15.20;45.83;103653.84;5091678;28;19920;-82
2022/01/23 13:13:53;;;;;;;;;;;;;;;15.04;45.51;103652.38;5072718;28;19969;-82
2022/01/23 13:16:27;;;;;;;;;;;;;;;16.36;43.11;103655.59;5092092;28;20431;-83
2022/01/23 13:26:28;;;;;;;;;;;;;;;15.50;44.12;103650.44;5092058;28;20451;-80
2022/01/23 13:30:29;;;;;;;;;;;;;;;15.09;44.70;103647.69;5091574;28;19938;-82
2022/01/23 13:33:01;;;;;;;;;;;;;;;14.73;45.21;103649.38;5090877;28;19955;-82
2022/01/23 13:35:30;;;;;;;;;;;;;;;14.25;46.50;103658.41;5090464;28;20320;-82
2022/01/23 13:37:58;;;;;;;;;;;;;;;15.42;44.61;103646.03;5092480;28;20393;-82
2022/01/23 13:40:28;;;;;;;;;;;;;;;15.81;44.07;103639.72;5092459;28;20014;-82
2022/01/23 13:53:47;;;;;;;;;;;;;;;14.52;47.42;103644.31;5092492;28;19963;-83
2022/01/23 14:04:19;;;;;;;;;;;;;;;15.37;45.77;103628.00;5092525;28;19924;-82
2022/01/23 14:06:45;;;;;;;;;;;;;;;15.03;46.10;103635.09;5091108;28;20337;-83
2022/01/23 14:09:12;;;;;;;;;;;;;;;14.43;47.42;103638.13;5091084;28;19942;-82
2022/01/23 14:11:37;;;;;;;;;;;;;;;14.89;46.23;103632.66;5092372;28;19989;-82
2022/01/23 14:14:19;;;;;;;;;;;;;;;14.87;44.98;103631.81;5091048;28;19920;-82
2022/01/23 14:16:46;;;;;;;;;;;;;;;15.10;45.12;103632.22;5091202;28;19916;-82
2022/01/23 14:19:17;;;;;;;;;;;;;;;15.13;44.51;103624.91;5092464;28;19920;-82
2022/01/23 14:21:43;;;;;;;;;;;;;;;15.19;45.21;103634.78;5091092;28;20479;-83
2022/01/23 14:24:08;;;;;;;;;;;;;;;15.11;45.58;103634.03;5092407;28;19939;-85
2022/01/23 14:26:34;;;;;;;;;;;;;;;14.78;45.53;103623.84;5092534;28;20374;-90
2022/01/23 14:29:03;;;;;;;;;;;;;;;15.29;44.98;103619.97;5090641;28;19959;-85
2022/01/23 14:31:36;;;;;;;;;;;;;;;15.90;44.17;103630.41;5090676;28;19922;-82
2022/01/23 14:34:04;;;;;;;;;;;;;;;15.22;45.38;103632.88;5091126;28;19920;-82
2022/01/23 14:36:31;;;;;;;;;;;;;;;15.30;45.62;103626.34;5091010;28;19923;-82
2022/01/23 14:39:04;;;;;;;;;;;;;;;15.04;45.51;103627.84;5091103;28;19951;-86
2022/01/23 14:41:31;;;;;;;;;;;;;;;15.34;44.92;103623.50;5091202;28;19939;-84
2022/01/23 14:43:57;;;;;;;;;;;;;;;15.74;44.00;103625.25;5091192;28;19916;-86
2022/01/23 14:46:22;;;;;;;;;;;;;;;14.85;45.79;103630.94;5092577;28;19916;-87
2022/01/23 14:48:49;;;;;;;;;;;;;;;15.06;45.43;103628.69;5092672;28;19916;-86
2022/01/23 14:51:19;;;;;;;;;;;;;;;15.16;44.79;103622.09;5090976;28;19927;-86
2022/01/23 14:53:44;;;;;;;;;;;;;;;14.86;45.33;103620.94;5092162;28;19924;-85
2022/01/23 14:56:11;;;;;;;;;;;;;;;14.90;45.12;103622.69;5094673;28;20400;-85
2022/01/23 14:58:37;;;;;;;;;;;;;;;14.83;44.75;103624.63;5094706;28;19916;-82
2022/01/23 15:01:03;;;;;;;;;;;;;;;15.55;43.28;103616.66;5093307;28;19916;-82
2022/01/23 15:03:32;;;;;;;;;;;;;;;14.67;45.19;103617.69;5095777;28;20277;-83
2022/01/23 15:05:59;;;;;;;;;;;;;;;14.88;44.68;103622.69;5094813;28;20289;-84
2022/01/23 15:08:25;;;;;;;;;;;;;;;15.28;43.46;103614.56;5094792;28;19930;-84
2022/01/23 15:10:51;;;;;;;;;;;;;;;15.19;43.65;103613.84;5095665;28;20356;-83
2022/01/23 15:13:19;;;;;;;;;;;;;;;15.70;42.45;103623.56;5096032;28;20011;-85
2022/01/23 15:15:44;;;;;;;;;;;;;;;14.73;43.88;103617.56;5094612;28;19916;-84
2022/01/23 15:18:11;;;;;;;;;;;;;;;14.21;44.78;103613.13;5093308;28;19921;-85
2022/01/23 15:20:36;;;;;;;;;;;;;;;14.03;45.21;103620.69;5092181;28;19920;-85
2022/01/23 15:23:03;;;;;;;;;;;;;;;14.43;44.54;103621.78;5092877;28;19923;-84
2022/01/23 15:25:29;;;;;;;;;;;;;;;14.71;44.09;103616.72;5091926;28;20028;-83
2022/01/23 15:27:54;;;;;;;;;;;;;;;15.03;43.43;103624.19;5092379;28;19920;-86
2022/01/23 15:30:21;;;;;;;;;;;;;;;15.40;42.88;103617.91;5092229;28;19920;-86
2022/01/23 15:32:46;;;;;;;;;;;;;;;15.81;42.10;103614.25;5092291;28;19920;-86
2022/01/23 15:35:12;;;;;;;;;;;;;;;15.38;43.38;103617.06;5091839;28;21472;-86
2022/01/23 15:37:38;;;;;;;;;;;;;;;14.69;44.04;103624.91;5091086;28;19915;-85
2022/01/23 15:40:04;;;;;;;;;;;;;;;15.00;43.59;103626.09;5094450;28;19930;-85
2022/01/23 15:42:30;;;;;;;;;;;;;;;14.62;44.60;103625.06;5092497;28;20430;-87
2022/01/23 15:44:55;;;;;;;;;;;;;;;14.41;45.08;103620.91;5092317;28;19916;-85
2022/01/23 15:47:20;;;;;;;;;;;;;;;15.59;43.03;103618.38;5092804;28;20007;-86
2022/01/23 15:49:46;;;;;;;;;;;;;;;14.62;44.83;103625.06;5094526;28;20005;-89
2022/01/23 15:52:12;;;;;;;;;;;;;;;14.41;44.72;103623.63;5093562;28;20036;-86